CMN6 weather

Edmonton/Morinville (Mike's Field)
Alberta, Canada

Public forecast

Using degrees Celsius for public forecast. Weather courtesy of forecast.io.

Closest aviation weather report (METAR) to Edmonton/Morinville (Mike's Field)

Closest report is Edmonton (CFB Namao) Heliport, 10.6 nm (19.7 km) SSE. Retrieved 2020/07/07 22:00 UTC (17 minutes ago):

CYED 072200Z 05006KT 15SM FEW030 BKN096 OVC130 19/13 A2975 RMK SC2AC3AS2 DA3700FT SLP077

Closest aviation forecast (TAF) to Edmonton/Morinville (Mike's Field)

Closest forecast is Edmonton (CFB Namao) Heliport, 10.6 nm (19.7 km) SSE. Retrieved 2020/07/07 18:33 UTC (4 hours ago):

TAF TAF CYED 071730Z 0718/0806 VRB03KT P6SM -SHRA SCT030 BKN070 TEMPO 0718/0802 5SM -SHRA BR BKN020 OVC070 PROB30 0718/0802 VRB15G25KT 5SM TSRA BR BKN030CB FM080200 03010KT 6SM -SHRA BR SCT008 OVC030 TEMPO 0802/0806 2SM SHRA BR BKN008 OVC020 RMK FCST BASED ON AUTO OBS 080200-080600Z NXT FCST BY 080000Z